Bella Vita — ZGAG5 — position and weather

sailwx.info

Track history (hours):
 
Tides and Currents Weather Stations Pressure Air Temp Water Temp Dewpoint Dewpoint Depression Visibility Wind Speed Wind Dir Waves Ship Positions

Bella Vita

Last reported at 2017-Mar-25 18:33 UTC. Time now 2017-Mar-25 23:36 UTC.
Position N 18°22' W 064°37'.

Length 45 m; draft 2.7 m.

Type: Pleasure craft. MMSI: 319016600.

Date/timePositionNaut miles runAvg speedWind from/ knotsBaromVisibWave heightAir tempDewpointWater temp
2017-Mar-25 18:33N 18°22' W 064°37'115.6
2017-Mar-25 18:31N 18°22' W 064°36'2 1.8
2017-Mar-25 17:09N 18°25' W 064°36'7 2.6
2017-Mar-25 14:30N 18°28' W 064°30'  
2017-Mar-21 19:24N 18°30' W 064°22'0 0.2
2017-Mar-21 19:13N 18°30' W 064°21'0 0.5
2017-Mar-21 18:33N 18°30' W 064°22'0 1.5
2017-Mar-21 18:21N 18°30' W 064°21'10 3.6
2017-Mar-21 15:32N 18°27' W 064°32'2 1.8
2017-Mar-21 14:17N 18°26' W 064°31'113.7
2017-Mar-21 14:12N 18°25' W 064°32'4 0.1
2017-Mar-20 10:10N 18°25' W 064°36'013.5
2017-Mar-20 10:10N 18°25' W 064°36'16811.9
2017-Mar-19 20:05N 16°22' W 062°37'  
Track history (hours):
 
Tides and Currents Weather Stations Pressure Air Temp Water Temp Dewpoint Dewpoint Depression Visibility Wind Speed Wind Dir Waves Ship Positions

Bella Vita

Last reported at 2017-Mar-25 18:33 UTC. Time now 2017-Mar-25 23:36 UTC.
Position N 18°22' W 064°37'.

Length 45 m; draft 2.7 m.

Type: Pleasure craft. MMSI: 319016600.

Date/timePositionNaut miles runAvg speedWind from/ knotsBaromVisibWave heightAir tempDewpointWater temp
2017-Mar-25 18:33N 18°22' W 064°37'115.6
2017-Mar-25 18:31N 18°22' W 064°36'2 1.8
2017-Mar-25 17:09N 18°25' W 064°36'7 2.6
2017-Mar-25 14:30N 18°28' W 064°30'  
2017-Mar-21 19:24N 18°30' W 064°22'0 0.2
2017-Mar-21 19:13N 18°30' W 064°21'0 0.5
2017-Mar-21 18:33N 18°30' W 064°22'0 1.5
2017-Mar-21 18:21N 18°30' W 064°21'10 3.6
2017-Mar-21 15:32N 18°27' W 064°32'2 1.8
2017-Mar-21 14:17N 18°26' W 064°31'113.7
2017-Mar-21 14:12N 18°25' W 064°32'4 0.1
2017-Mar-20 10:10N 18°25' W 064°36'013.5
2017-Mar-20 10:10N 18°25' W 064°36'16811.9
2017-Mar-19 20:05N 16°22' W 062°37'  

Dump ship's entire track history